Terminal Aerodrome Forecast
Issued by NWS

Home | Current Version | Previous Version | Text Only | Print | Product List | Glossary On
Versions: 1 2 3 4 5 6 7 8 9 10 11 12 13 14 15 16 17 18 19 20 21 22 23 24 25 26 27 28 29 30 31 32 33 34
000
FTAK31 PAFA 022339
TAFABT
TAF
PABT 022339Z 0300/0324 24015G23KT P6SM -RA FEW030 BKN050 BKN150
     FM030600 23010KT P6SM OVC050
     FM031200 18007KT P6SM BKN050
     FM032100 20006KT P6SM SCT050 SCT200=

USA.gov is the U.S. government's official web portal to all federal, state and local government web resources and services.